CA-0705 weather

CLOSED Havre Aubert Airport
Havre Aubert, Quebec, Canada

Public forecast

Using degrees Celsius for public forecast. Weather courtesy of forecast.io.

Closest aviation weather report (METAR) to Havre Aubert Airport

Report is more than 6 hours old.

Closest report is Îles-de-la-Madeleine Airport, 12.2 nm (22.7 km) N. Retrieved 2020/03/31 02:00 UTC (6 hours ago):

CYGR 310200Z 04015KT 15SM SKC M03/M05 A3013 RMK LAST STFD OBS/NXT 310900Z SLP206

Closest aviation forecast (TAF) to Havre Aubert Airport

Forecast is more than 12 hours old.

Closest forecast is Îles-de-la-Madeleine Airport, 12.2 nm (22.7 km) N. Retrieved 2020/03/30 20:00 UTC (12 hours ago):

TAF CYGR 301938Z 3020/3102 04018G28KT P6SM FEW015 BKN150 TEMPO 3020/3102 OVC015 PROB30 3100/3102 OVC008 RMK NXT FCST WILL BE ISSUED AT 311045Z